Time;durP1;ratioP1;P1;durP2;ratioP2;P2;SDS_P1;SDS_P2;PMS_P1;PMS_P2;Temp;Humidity;BMP_temperature;BMP_pressure;BME280_temperature;BME280_humidity;BME280_pressure;Samples;Min_cycle;Max_cycle;Signal;HPM_P1;HPM_P2
2024/02/12 00:02:32;;;;;;;;;44.50;37.00;;;;;13.98;100.00;96800.41;6186528;28;96380;-56
2024/02/12 00:05:36;;;;;;;;;43.00;36.00;;;;;13.94;100.00;96798.59;6210555;28;96716;-56
2024/02/12 00:08:40;;;;;;;;;47.00;38.40;;;;;13.93;100.00;96805.13;6211496;28;96489;-56
2024/02/12 00:11:45;;;;;;;;;42.60;35.40;;;;;13.94;100.00;96804.00;6211472;28;96537;-56
2024/02/12 00:14:49;;;;;;;;;43.40;36.40;;;;;13.88;100.00;96806.78;6191294;28;97077;-56
2024/02/12 00:17:52;;;;;;;;;45.00;36.67;;;;;13.84;100.00;96807.69;6210364;28;96512;-56
2024/02/12 00:20:56;;;;;;;;;45.00;36.00;;;;;13.77;100.00;96816.19;6181209;28;97213;-57
2024/02/12 00:24:00;;;;;;;;;46.20;38.60;;;;;13.77;100.00;96826.22;6217116;28;96593;-57
2024/02/12 00:27:07;;;;;;;;;45.00;36.00;;;;;13.75;100.00;96834.63;6199477;28;97163;-57
2024/02/12 00:30:12;;;;;;;;;45.00;36.00;;;;;13.69;100.00;96827.66;6216000;28;96448;-57
2024/02/12 00:33:15;;;;;;;;;48.00;38.00;;;;;13.67;100.00;96837.19;6218338;28;96427;-57
2024/02/12 00:36:19;;;;;;;;;49.00;40.00;;;;;13.60;100.00;96828.59;6218445;28;96333;-57
2024/02/12 00:39:23;;;;;;;;;45.00;36.67;;;;;13.60;100.00;96842.94;6220835;28;96435;-57
2024/02/12 00:42:28;;;;;;;;;45.60;37.60;;;;;13.56;100.00;96841.09;6223617;28;96959;-56
2024/02/12 00:45:31;;;;;;;;;45.60;38.00;;;;;13.54;100.00;96843.28;6206209;28;96585;-57
2024/02/12 00:48:35;;;;;;;;;45.20;36.80;;;;;13.53;100.00;96847.91;6224133;28;96274;-57
2024/02/12 00:51:40;;;;;;;;;45.00;38.00;;;;;13.56;100.00;96846.50;6224229;28;96287;-57
2024/02/12 00:54:43;;;;;;;;;41.00;35.00;;;;;13.61;100.00;96852.69;6223782;28;96310;-57
2024/02/12 00:57:48;;;;;;;;;39.40;34.40;;;;;13.65;100.00;96839.34;6223630;28;96374;-57
2024/02/12 01:00:51;;;;;;;;;42.50;33.50;;;;;13.65;100.00;96837.44;6223390;28;96242;-56
2024/02/12 01:04:07;;;;;;;;;34.20;30.00;;;;;13.67;100.00;96848.00;6223345;28;96274;-57
2024/02/12 01:07:10;;;;;;;;;33.60;30.00;;;;;13.65;100.00;96844.78;6222880;28;96415;-56
2024/02/12 01:10:15;;;;;;;;;31.20;28.40;;;;;13.62;100.00;96840.75;6223384;28;96323;-56
2024/02/12 01:13:20;;;;;;;;;28.00;26.00;;;;;13.63;100.00;96847.78;6222786;28;96372;-56
2024/02/12 01:16:24;;;;;;;;;26.20;23.80;;;;;13.59;100.00;96845.94;6222882;28;96352;-57
2024/02/12 01:19:33;;;;;;;;;24.40;20.40;;;;;13.54;100.00;96849.50;6222463;28;96348;-57
2024/02/12 01:22:38;;;;;;;;;22.00;21.00;;;;;13.56;100.00;96857.34;6223763;28;96854;-57
2024/02/12 01:25:43;;;;;;;;;17.00;15.20;;;;;13.56;100.00;96862.75;6222906;28;96571;-56
2024/02/12 01:28:48;;;;;;;;;16.33;15.00;;;;;13.54;100.00;96854.09;6223092;28;96273;-54
2024/02/12 01:31:51;;;;;;;;;13.00;12.00;;;;;13.44;100.00;96855.03;6217507;28;96409;-54
2024/02/12 01:34:55;;;;;;;;;12.40;12.00;;;;;13.40;100.00;96856.72;6199234;28;98918;-54
2024/02/12 01:37:58;;;;;;;;;11.60;10.80;;;;;13.30;100.00;96854.13;6217497;28;96418;-54
2024/02/12 01:41:02;;;;;;;;;10.40;10.40;;;;;13.27;100.00;96855.53;6217884;28;96455;-54
2024/02/12 01:44:07;;;;;;;;;8.00;8.00;;;;;13.16;100.00;96864.84;6218044;28;96401;-54
2024/02/12 01:47:11;;;;;;;;;7.00;7.00;;;;;13.10;100.00;96863.25;6217596;28;96339;-54
2024/02/12 01:50:27;;;;;;;;;7.00;6.00;;;;;13.19;100.00;96863.47;6216408;28;96310;-54
2024/02/12 01:53:31;;;;;;;;;6.60;6.60;;;;;13.11;100.00;96845.13;6217464;28;96472;-54
2024/02/12 01:56:35;;;;;;;;;7.80;6.20;;;;;13.15;100.00;96862.41;6217523;28;96260;-54
2024/02/12 01:59:40;;;;;;;;;4.40;4.40;;;;;13.04;100.00;96861.72;6215950;28;96411;-54
2024/02/12 02:02:45;;;;;;;;;6.00;6.00;;;;;12.96;100.00;96862.31;6237471;22;97480;-54
2024/02/12 02:05:48;;;;;;;;;7.00;7.00;;;;;12.91;100.00;96874.00;6242568;28;96390;-54
2024/02/12 02:08:51;;;;;;;;;5.00;5.00;;;;;12.82;100.00;96862.19;6241853;28;96699;-54
2024/02/12 02:11:54;;;;;;;;;6.00;5.00;;;;;12.88;100.00;96876.47;6242564;28;96318;-54
2024/02/12 02:15:00;;;;;;;;;4.00;4.00;;;;;12.85;100.00;96877.03;6241685;28;96148;-53
2024/02/12 02:18:05;;;;;;;;;4.00;4.00;;;;;12.79;100.00;96870.88;6242001;28;96233;-54
2024/02/12 02:21:21;;;;;;;;;3.20;3.00;;;;;12.78;100.00;96877.38;6240865;28;96815;-55
2024/02/12 02:24:26;;;;;;;;;6.40;5.40;;;;;12.56;100.00;96834.56;6221351;28;96315;-55
2024/02/12 02:27:29;;;;;;;;;7.00;5.25;;;;;12.77;100.00;96864.13;6238714;28;97698;-54
2024/02/12 02:30:32;;;;;;;;;4.00;4.00;;;;;12.79;100.00;96870.06;6238287;28;96828;-54
2024/02/12 02:33:36;;;;;;;;;8.00;7.00;;;;;12.75;100.00;96869.03;6219846;28;96753;-55
2024/02/12 02:36:40;;;;;;;;;5.80;5.00;;;;;12.79;100.00;96876.28;6238480;28;96869;-54
2024/02/12 02:39:44;;;;;;;;;6.60;5.60;;;;;12.84;100.00;96880.84;6243066;28;96360;-57
2024/02/12 02:42:47;;;;;;;;;7.40;7.00;;;;;12.89;100.00;96876.19;6254136;28;96928;-57
2024/02/12 02:45:51;;;;;;;;;7.00;7.00;;;;;12.86;100.00;96859.69;6253603;28;96398;-57
2024/02/12 02:48:55;;;;;;;;;8.00;8.00;;;;;13.02;100.00;96886.31;6254363;28;96659;-57
2024/02/12 02:51:59;;;;;;;;;6.60;6.60;;;;;13.09;100.00;96896.81;6254718;28;96811;-57
2024/02/12 02:55:04;;;;;;;;;7.00;6.40;;;;;13.08;100.00;96897.91;6253878;28;96268;-57
2024/02/12 02:58:08;;;;;;;;;4.75;4.00;;;;;13.12;100.00;96892.75;6255684;28;96359;-57
2024/02/12 03:01:12;;;;;;;;;4.00;4.00;;;;;13.13;100.00;96891.66;6255662;27;96257;-57
2024/02/12 03:04:15;;;;;;;;;3.00;3.00;;;;;13.08;100.00;96900.63;6254130;28;96402;-57
2024/02/12 03:07:18;;;;;;;;;2.20;2.20;;;;;13.11;100.00;96901.91;6253004;28;96521;-57
2024/02/12 03:10:23;;;;;;;;;2.00;2.00;;;;;13.09;100.00;96904.13;6249049;28;96344;-57
2024/02/12 03:13:26;;;;;;;;;2.00;2.00;;;;;13.12;100.00;96906.28;6255128;28;96352;-57
2024/02/12 03:16:31;;;;;;;;;3.00;3.00;;;;;13.02;100.00;96905.25;6255152;28;96294;-57
2024/02/12 03:19:34;;;;;;;;;1.00;1.00;;;;;13.01;100.00;96917.16;6255204;28;96463;-57
2024/02/12 03:22:39;;;;;;;;;0.00;0.00;;;;;13.04;100.00;96921.22;6236362;28;97658;-57
2024/02/12 03:25:44;;;;;;;;;2.00;2.00;;;;;13.03;100.00;96925.81;6255735;28;96412;-57
2024/02/12 03:28:49;;;;;;;;;1.00;0.20;;;;;13.01;100.00;96922.56;6237255;28;96400;-57
2024/02/12 03:31:52;;;;;;;;;2.25;2.25;;;;;12.95;100.00;96925.63;6236820;28;96712;-57
2024/02/12 03:34:57;;;;;;;;;2.00;2.00;;;;;12.95;100.00;96933.75;6256102;28;96811;-57
2024/02/12 03:38:00;;;;;;;;;2.00;2.00;;;;;12.77;100.00;96893.88;6255348;28;96259;-57
2024/02/12 03:41:05;;;;;;;;;0.75;0.75;;;;;12.96;100.00;96936.16;6255138;28;96156;-57
2024/02/12 03:44:09;;;;;;;;;3.00;2.00;;;;;12.96;100.00;96938.84;6254808;28;96117;-57
2024/02/12 03:47:13;;;;;;;;;1.00;1.00;;;;;12.98;100.00;96943.97;6254807;28;96565;-57
2024/02/12 04:00:22;;;;;;;;;1.00;1.00;;;;;13.11;100.00;96950.63;6245381;28;96364;-56
2024/02/12 04:03:25;;;;;;;;;1.00;1.00;;;;;13.12;100.00;96955.78;6245230;28;96447;-56
2024/02/12 04:06:34;;;;;;;;;1.00;1.00;;;;;13.11;100.00;96951.47;6245902;28;96289;-56
2024/02/12 04:09:41;;;;;;;;;2.00;1.00;;;;;13.12;100.00;96947.66;6244479;28;96328;-56
2024/02/12 04:12:47;;;;;;;;;1.00;1.00;;;;;13.11;100.00;96945.22;6246520;27;96304;-56
2024/02/12 04:15:51;;;;;;;;;1.00;1.00;;;;;13.10;100.00;96944.41;6249555;28;96835;-57
2024/02/12 04:18:55;;;;;;;;;0.00;0.00;;;;;13.08;100.00;96953.91;6249509;28;96698;-57
2024/02/12 04:21:58;;;;;;;;;0.60;0.00;;;;;13.08;100.00;96957.41;6250044;28;96398;-56
2024/02/12 04:25:04;;;;;;;;;0.20;0.20;;;;;13.13;100.00;96952.00;6248194;28;96342;-56
2024/02/12 04:28:12;;;;;;;;;1.00;1.00;;;;;13.14;100.00;96959.03;6247983;28;96546;-57
2024/02/12 04:31:15;;;;;;;;;1.00;1.00;;;;;13.14;100.00;96961.72;6249524;28;96709;-57
2024/02/12 04:34:18;;;;;;;;;1.00;1.00;;;;;13.16;100.00;96962.22;6246845;28;96213;-57
2024/02/12 04:37:23;;;;;;;;;0.00;0.00;;;;;13.20;100.00;96962.47;6247952;28;96696;-57
2024/02/12 04:40:26;;;;;;;;;1.00;1.00;;;;;13.22;100.00;96963.81;6247907;28;96328;-57
2024/02/12 04:43:30;;;;;;;;;2.00;2.00;;;;;13.21;100.00;96961.38;6248456;28;96506;-57
2024/02/12 04:46:34;;;;;;;;;2.00;2.00;;;;;13.20;100.00;96962.47;6246913;28;96694;-57
2024/02/12 04:49:37;;;;;;;;;2.00;2.00;;;;;13.19;100.00;96961.69;6242482;28;96943;-57
2024/02/12 04:52:40;;;;;;;;;2.00;1.00;;;;;13.24;100.00;96969.72;6240907;28;96868;-57
2024/02/12 04:55:43;;;;;;;;;2.00;2.00;;;;;13.24;100.00;96961.59;6242171;28;96373;-56
2024/02/12 04:58:49;;;;;;;;;1.00;1.00;;;;;13.27;100.00;96973.78;6248223;28;96614;-56
2024/02/12 05:01:54;;;;;;;;;2.00;1.00;;;;;13.25;100.00;96974.03;6257579;28;96487;-58
2024/02/12 05:04:58;;;;;;;;;0.00;0.00;;;;;13.26;100.00;96972.16;6258630;28;96468;-57
2024/02/12 05:08:03;;;;;;;;;2.80;1.00;;;;;13.27;100.00;96974.59;6259016;28;96248;-57
2024/02/12 05:11:07;;;;;;;;;1.00;1.00;;;;;13.27;100.00;96981.91;6257908;27;96245;-57
2024/02/12 05:14:11;;;;;;;;;2.00;2.00;;;;;13.28;100.00;96984.31;6262572;27;96324;-57
2024/02/12 05:17:23;;;;;;;;;1.00;1.00;;;;;13.32;100.00;96984.56;6275809;27;96380;-57
2024/02/12 05:23:47;;;;;;;;;1.00;1.00;;;;;13.25;100.00;96989.47;6256330;28;96229;-57
2024/02/12 05:26:50;;;;;;;;;0.00;0.00;;;;;13.22;100.00;96987.34;6257779;27;96894;-58
2024/02/12 05:29:55;;;;;;;;;1.00;1.00;;;;;13.23;100.00;96991.69;6257463;28;96294;-57
2024/02/12 05:32:59;;;;;;;;;1.00;1.00;;;;;13.22;100.00;96993.56;6257907;28;96672;-57
2024/02/12 05:36:04;;;;;;;;;1.00;1.00;;;;;13.25;100.00;97003.00;6258011;28;96370;-58
2024/02/12 05:39:09;;;;;;;;;1.00;1.00;;;;;13.28;100.00;96999.75;6255661;28;96570;-57
2024/02/12 05:42:12;;;;;;;;;2.00;1.00;;;;;13.21;100.00;97008.19;6256400;28;96633;-57
2024/02/12 05:45:17;;;;;;;;;2.00;2.00;;;;;13.23;100.00;97000.59;6257154;28;96113;-57
2024/02/12 05:48:29;;;;;;;;;2.00;2.00;;;;;13.27;100.00;97006.25;6254763;28;96023;-57
2024/02/12 05:51:32;;;;;;;;;3.00;2.00;;;;;13.30;100.00;97011.88;6238104;28;96371;-57
2024/02/12 05:54:36;;;;;;;;;2.00;1.60;;;;;13.32;100.00;97007.00;6254775;28;96327;-58
2024/02/12 05:57:39;;;;;;;;;2.20;2.20;;;;;13.34;100.00;97002.09;6256460;28;96300;-58
2024/02/12 06:00:43;;;;;;;;;1.20;1.20;;;;;13.34;100.00;97012.94;6258069;28;96922;-57
2024/02/12 06:03:47;;;;;;;;;3.00;2.00;;;;;13.39;100.00;97026.41;6257117;28;96365;-57
2024/02/12 06:06:50;;;;;;;;;2.00;2.00;;;;;13.35;100.00;97024.56;6257805;28;96265;-57
2024/02/12 06:09:53;;;;;;;;;1.00;1.00;;;;;13.34;100.00;97029.16;6256126;28;96319;-57
2024/02/12 06:12:57;;;;;;;;;3.40;3.40;;;;;13.34;100.00;97033.78;6255416;28;96273;-57
2024/02/12 06:16:01;;;;;;;;;1.00;1.00;;;;;13.28;100.00;97040.34;6255127;28;96706;-57
2024/02/12 06:19:07;;;;;;;;;3.00;2.00;;;;;13.30;100.00;97047.06;6254178;28;96948;-57
2024/02/12 06:22:11;;;;;;;;;2.75;2.00;;;;;13.33;100.00;97054.63;6256491;28;96972;-57
2024/02/12 06:25:15;;;;;;;;;2.00;1.40;;;;;13.36;100.00;97048.66;6238756;28;97799;-57
2024/02/12 06:28:18;;;;;;;;;2.00;2.00;;;;;13.42;100.00;97054.81;6256385;28;96384;-57
2024/02/12 06:31:23;;;;;;;;;1.00;1.00;;;;;13.45;100.00;97049.66;6259533;28;96574;-57
2024/02/12 06:34:26;;;;;;;;;1.20;1.20;;;;;13.40;100.00;97057.00;6257504;28;96256;-57
2024/02/12 06:37:29;;;;;;;;;1.00;1.00;;;;;13.48;100.00;97058.31;6255654;28;98261;-58
2024/02/12 06:40:32;;;;;;;;;2.00;2.00;;;;;13.49;100.00;97047.16;6256413;28;96339;-57
2024/02/12 06:43:36;;;;;;;;;2.60;2.00;;;;;13.52;100.00;97060.16;6255030;28;96341;-57
2024/02/12 06:46:44;;;;;;;;;3.00;2.00;;;;;13.49;100.00;97041.75;6254290;28;96371;-57
2024/02/12 06:49:48;;;;;;;;;3.00;2.00;;;;;13.63;100.00;97052.75;6254167;28;96381;-57
2024/02/12 06:52:52;;;;;;;;;2.00;2.00;;;;;13.71;100.00;97065.66;6254394;28;96867;-57
2024/02/12 06:55:56;;;;;;;;;2.75;1.00;;;;;13.74;100.00;97074.00;6255252;28;96296;-57
2024/02/12 06:58:59;;;;;;;;;2.25;2.25;;;;;13.87;100.00;97076.06;6254998;28;96581;-57
2024/02/12 07:02:04;;;;;;;;;2.00;2.00;;;;;13.93;100.00;97071.38;6254490;28;96829;-57
2024/02/12 07:05:09;;;;;;;;;3.00;2.00;;;;;14.00;100.00;97071.03;6255665;28;96472;-57
2024/02/12 07:08:15;;;;;;;;;2.00;2.00;;;;;14.11;100.00;97078.78;6254467;28;96354;-57
2024/02/12 07:11:22;;;;;;;;;3.00;2.00;;;;;14.19;100.00;97086.25;6255748;28;96264;-57
2024/02/12 07:14:27;;;;;;;;;2.00;2.00;;;;;14.23;100.00;97084.59;6255989;28;96547;-57
2024/02/12 07:17:31;;;;;;;;;1.00;1.00;;;;;14.26;100.00;97086.75;6255766;28;96379;-57
2024/02/12 07:20:35;;;;;;;;;2.00;2.00;;;;;14.32;100.00;97084.75;6249283;28;96304;-57
2024/02/12 07:23:38;;;;;;;;;4.00;3.00;;;;;14.37;100.00;97086.66;6226699;27;96575;-57
2024/02/12 07:26:42;;;;;;;;;3.20;3.20;;;;;14.45;100.00;97094.13;6249112;28;96253;-57
2024/02/12 07:29:46;;;;;;;;;3.50;3.50;;;;;14.52;100.00;97097.28;6250107;28;96446;-57
2024/02/12 07:32:50;;;;;;;;;3.60;3.60;;;;;14.63;100.00;97099.59;6250161;28;96331;-57
2024/02/12 07:35:55;;;;;;;;;4.00;3.40;;;;;14.77;100.00;97104.28;6250490;28;96275;-56
2024/02/12 07:38:58;;;;;;;;;5.00;5.00;;;;;14.90;100.00;97106.31;6250370;28;96334;-57
2024/02/12 07:42:03;;;;;;;;;4.40;4.40;;;;;15.00;100.00;97106.94;6250805;28;96508;-57
2024/02/12 07:45:10;;;;;;;;;4.00;4.00;;;;;15.06;100.00;97108.50;6216283;28;97830;-57
2024/02/12 07:48:16;;;;;;;;;4.50;4.50;;;;;15.11;100.00;97108.41;6245463;28;96945;-56
2024/02/12 07:51:20;;;;;;;;;3.40;3.40;;;;;15.11;100.00;97113.84;6244065;28;96395;-57
2024/02/12 07:54:26;;;;;;;;;4.00;4.00;;;;;15.23;100.00;97115.31;6224059;28;98260;-57
2024/02/12 07:57:29;;;;;;;;;4.00;3.00;;;;;15.24;100.00;97125.06;6243404;28;96414;-57
2024/02/12 08:00:32;;;;;;;;;4.40;4.00;;;;;15.27;100.00;97127.19;6224997;28;96756;-57
2024/02/12 08:03:37;;;;;;;;;5.00;4.60;;;;;15.27;100.00;97133.44;6201099;28;1245703;-57
2024/02/12 08:06:41;;;;;;;;;5.40;5.00;;;;;15.28;100.00;97140.47;6245478;28;96249;-57
2024/02/12 08:09:44;;;;;;;;;3.20;3.20;;;;;15.35;100.00;97138.19;6244652;28;96335;-57
2024/02/12 08:12:48;;;;;;;;;4.40;4.40;;;;;15.29;100.00;97128.53;6245334;28;96291;-57
2024/02/12 08:15:51;;;;;;;;;5.00;4.60;;;;;15.34;100.00;97139.31;6209860;28;97005;-57
2024/02/12 08:19:11;;;;;;;;;5.00;4.20;;;;;15.36;100.00;97142.53;6245799;28;96289;-57
2024/02/12 08:22:15;;;;;;;;;5.00;5.00;;;;;15.47;100.00;97144.00;6245587;28;97596;-57
2024/02/12 08:25:20;;;;;;;;;7.00;6.00;;;;;15.51;100.00;97142.31;6245986;28;97010;-57
2024/02/12 08:28:24;;;;;;;;;4.80;4.80;;;;;15.50;100.00;97148.81;6244749;28;96442;-57
2024/02/12 08:31:27;;;;;;;;;5.00;4.00;;;;;15.55;100.00;97156.09;6245271;28;96391;-57
2024/02/12 08:34:32;;;;;;;;;4.00;4.00;;;;;15.58;100.00;97153.63;6227465;28;96350;-57
2024/02/12 08:37:37;;;;;;;;;3.00;3.00;;;;;15.66;100.00;97149.44;6223152;28;96038;-57
2024/02/12 08:40:40;;;;;;;;;5.00;4.00;;;;;15.83;100.00;97160.53;6245210;28;96344;-57
2024/02/12 08:43:43;;;;;;;;;5.00;4.50;;;;;16.02;100.00;97157.78;6242175;28;96465;-57
2024/02/12 08:46:47;;;;;;;;;6.00;6.00;;;;;16.19;100.00;97166.16;6244695;28;96390;-57
2024/02/12 08:49:53;;;;;;;;;6.00;5.60;;;;;16.28;100.00;97167.09;6243067;28;96818;-57
2024/02/12 08:52:57;;;;;;;;;9.00;6.75;;;;;16.48;100.00;97168.63;6242364;28;96637;-57
2024/02/12 08:56:00;;;;;;;;;5.20;4.80;;;;;16.60;100.00;97174.41;6243890;28;96332;-57
2024/02/12 08:59:06;;;;;;;;;5.40;5.40;;;;;16.62;100.00;97171.38;6226473;27;97239;-57
2024/02/12 09:02:09;;;;;;;;;7.00;6.00;;;;;16.58;100.00;97175.78;6249217;28;96325;-57
2024/02/12 09:05:14;;;;;;;;;8.00;6.00;;;;;16.61;100.00;97184.19;6228134;28;96923;-57
2024/02/12 09:08:19;;;;;;;;;6.00;6.00;;;;;16.44;100.00;97181.22;6251368;28;97720;-57
2024/02/12 09:11:22;;;;;;;;;7.00;6.00;;;;;16.48;100.00;97185.75;6250197;28;96424;-57
2024/02/12 09:14:26;;;;;;;;;6.00;5.00;;;;;16.40;100.00;97189.19;6249845;28;96331;-57
2024/02/12 09:17:30;;;;;;;;;5.00;4.40;;;;;16.53;100.00;97189.47;6248265;28;96243;-57
2024/02/12 09:20:34;;;;;;;;;6.00;5.00;;;;;16.84;100.00;97191.34;6231701;28;96379;-57
2024/02/12 09:23:37;;;;;;;;;6.00;5.00;;;;;17.10;100.00;97205.25;6250640;28;96421;-57
2024/02/12 09:26:41;;;;;;;;;6.00;5.00;;;;;17.52;100.00;97201.31;6251178;28;96214;-57
2024/02/12 09:29:47;;;;;;;;;5.80;5.40;;;;;18.01;100.00;97211.38;6250730;28;96244;-57
2024/02/12 09:32:51;;;;;;;;;6.00;6.00;;;;;18.18;100.00;97213.38;6249296;28;96247;-57
2024/02/12 09:35:56;;;;;;;;;5.00;5.00;;;;;18.39;100.00;97217.22;6249126;28;96321;-57
2024/02/12 09:39:00;;;;;;;;;5.00;4.00;;;;;18.43;100.00;97223.66;6247344;28;96683;-57
2024/02/12 09:42:05;;;;;;;;;4.00;3.00;;;;;18.31;100.00;97222.63;6251352;28;96237;-57
2024/02/12 09:45:13;;;;;;;;;3.80;3.80;;;;;18.12;100.00;97225.56;6252949;28;96403;-58
2024/02/12 09:48:18;;;;;;;;;5.20;4.20;;;;;17.92;100.00;97226.06;6234076;28;100561;-57
2024/02/12 09:51:27;;;;;;;;;4.00;4.00;;;;;17.83;100.00;97228.72;6250600;28;96258;-57
2024/02/12 09:54:31;;;;;;;;;6.00;5.00;;;;;17.59;100.00;97231.69;6251390;28;96333;-57
2024/02/12 09:57:34;;;;;;;;;5.80;4.80;;;;;17.46;100.00;97229.78;6250381;28;96788;-57
2024/02/12 10:00:38;;;;;;;;;5.00;4.00;;;;;17.38;100.00;97232.44;6250097;28;96318;-57
2024/02/12 10:03:48;;;;;;;;;4.00;4.00;;;;;17.08;100.00;97240.13;6252897;28;96800;-57
2024/02/12 10:07:13;;;;;;;;;3.00;3.00;;;;;16.86;100.00;97229.94;6252259;28;96163;-57
2024/02/12 10:10:38;;;;;;;;;4.00;4.00;;;;;16.64;100.00;97243.44;6236285;27;96868;-57
2024/02/12 10:14:04;;;;;;;;;5.00;5.00;;;;;16.37;100.00;97229.78;6251492;28;96321;-57
2024/02/12 10:17:27;;;;;;;;;4.00;4.00;;;;;16.29;100.00;97233.16;6237495;28;96543;-57
2024/02/12 10:20:50;;;;;;;;;3.00;3.00;;;;;16.07;100.00;97231.09;6253087;28;96433;-57
2024/02/12 10:24:17;;;;;;;;;5.25;4.25;;;;;15.97;100.00;97233.97;6253244;28;96234;-57
2024/02/12 10:27:40;;;;;;;;;6.00;6.00;;;;;16.02;100.00;97239.34;6252440;28;96928;-57
2024/02/12 10:31:04;;;;;;;;;4.60;4.00;;;;;16.06;100.00;97228.66;6250534;28;96224;-58
2024/02/12 10:34:29;;;;;;;;;6.00;5.40;;;;;15.96;100.00;97238.59;6249975;28;96473;-56
2024/02/12 10:37:53;;;;;;;;;5.00;5.00;;;;;15.98;100.00;97227.41;6234934;28;96921;-57
2024/02/12 10:41:27;;;;;;;;;6.00;6.00;;;;;15.83;100.00;97233.13;6237865;28;96499;-57
2024/02/12 10:44:51;;;;;;;;;6.00;4.60;;;;;15.79;100.00;97235.59;6251001;28;96233;-57
2024/02/12 10:48:16;;;;;;;;;7.60;7.00;;;;;15.88;100.00;97239.25;6249771;28;96340;-57
2024/02/12 10:51:41;;;;;;;;;4.00;4.00;;;;;15.77;100.00;97235.09;6244920;27;96244;-57
2024/02/12 10:55:09;;;;;;;;;4.00;4.00;;;;;15.71;100.00;97238.19;6230675;28;96330;-57
2024/02/12 10:58:15;;;;;;;;;4.50;4.50;;;;;15.60;100.00;97241.03;6245380;28;96676;-58
2024/02/12 11:01:18;;;;;;;;;5.00;5.00;;;;;15.70;100.00;97242.81;6247138;28;96275;-57
2024/02/12 11:04:26;;;;;;;;;5.00;5.00;;;;;15.77;100.00;97240.53;6222844;28;96485;-57
2024/02/12 11:07:30;;;;;;;;;5.00;5.00;;;;;15.68;100.00;97230.63;6222075;28;96653;-58
2024/02/12 11:10:34;;;;;;;;;5.00;5.00;;;;;15.65;100.00;97233.91;6220908;28;96464;-57
2024/02/12 11:13:42;;;;;;;;;4.60;4.00;;;;;15.59;100.00;97234.00;6221226;28;96855;-57
2024/02/12 11:16:49;;;;;;;;;5.00;4.60;;;;;15.62;100.00;97232.63;6220947;28;96363;-57
2024/02/12 11:19:53;;;;;;;;;4.40;4.00;;;;;15.52;100.00;97236.28;6220775;28;96285;-57
2024/02/12 11:23:05;;;;;;;;;3.00;3.00;;;;;15.51;100.00;97236.56;6203666;28;98774;-57
2024/02/12 11:26:11;;;;;;;;;4.00;4.00;;;;;15.50;100.00;97232.19;6224498;28;96363;-57
2024/02/12 11:29:17;;;;;;;;;4.00;4.00;;;;;15.53;100.00;97229.75;6224662;28;96220;-57
2024/02/12 11:32:22;;;;;;;;;4.00;4.00;;;;;15.66;100.00;97240.97;6206207;28;96824;-57
2024/02/12 11:35:25;;;;;;;;;5.40;4.20;;;;;15.75;100.00;97237.28;6223365;28;96320;-57
2024/02/12 11:38:29;;;;;;;;;5.60;5.00;;;;;15.78;100.00;97236.72;6223237;28;96342;-57
2024/02/12 11:41:33;;;;;;;;;7.00;6.00;;;;;15.86;100.00;97238.75;6223151;28;96276;-57
2024/02/12 11:44:38;;;;;;;;;4.00;4.00;;;;;15.92;100.00;97239.50;6222710;28;96611;-57
2024/02/12 11:47:42;;;;;;;;;5.00;4.60;;;;;15.94;100.00;97216.34;6222151;28;96415;-57
2024/02/12 11:50:46;;;;;;;;;6.00;5.00;;;;;16.20;100.00;97230.31;6223839;28;96279;-57
2024/02/12 11:53:51;;;;;;;;;5.25;5.25;;;;;16.40;100.00;97245.47;6224432;28;96984;-57
2024/02/12 11:56:57;;;;;;;;;5.20;5.20;;;;;16.48;100.00;97247.50;6223653;28;96396;-57
2024/02/12 12:00:05;;;;;;;;;5.00;5.00;;;;;16.54;100.00;97246.31;6204869;28;97210;-57
2024/02/12 12:03:13;;;;;;;;;6.00;5.00;;;;;16.51;100.00;97236.03;6214201;28;96368;-55
2024/02/12 12:06:18;;;;;;;;;7.00;6.00;;;;;16.61;100.00;97245.97;6213772;28;96393;-55
2024/02/12 12:09:21;;;;;;;;;4.00;4.00;;;;;16.64;100.00;97254.31;6213744;28;96401;-55
2024/02/12 12:12:25;;;;;;;;;6.75;6.00;;;;;16.62;100.00;97253.00;6214229;28;96848;-54
2024/02/12 12:15:29;;;;;;;;;5.00;5.00;;;;;16.54;100.00;97256.38;6213672;28;96455;-56
2024/02/12 12:18:39;;;;;;;;;9.00;8.00;;;;;16.45;100.00;97251.66;6212418;28;96394;-55
2024/02/12 12:21:42;;;;;;;;;6.00;6.00;;;;;16.42;100.00;97238.63;6213785;28;96648;-55
2024/02/12 12:24:46;;;;;;;;;8.00;8.00;;;;;16.44;100.00;97244.59;6212516;28;96540;-55
2024/02/12 12:27:50;;;;;;;;;7.00;6.75;;;;;16.33;100.00;97247.78;6213248;28;96695;-54
2024/02/12 12:30:55;;;;;;;;;5.00;5.00;;;;;16.32;100.00;97249.69;6211349;28;96357;-54
2024/02/12 12:33:58;;;;;;;;;7.00;7.00;;;;;16.37;100.00;97248.81;6212772;28;96278;-54
2024/02/12 12:37:02;;;;;;;;;6.00;6.00;;;;;16.38;100.00;97256.66;6212691;28;96522;-55
2024/02/12 12:40:10;;;;;;;;;7.00;7.00;;;;;16.37;100.00;97248.81;6216722;28;96368;-55
2024/02/12 12:43:13;;;;;;;;;9.60;9.00;;;;;16.48;100.00;97258.38;6183421;28;97429;-54
2024/02/12 12:46:19;;;;;;;;;7.00;6.40;;;;;16.52;100.00;97253.19;6192225;28;96422;-54
2024/02/12 12:49:31;;;;;;;;;6.00;6.00;;;;;16.58;100.00;97255.50;6192320;28;96328;-54
2024/02/12 12:52:34;;;;;;;;;7.20;6.20;;;;;16.38;100.00;97253.13;6192376;28;96492;-55
2024/02/12 12:55:38;;;;;;;;;7.00;7.00;;;;;16.35;100.00;97248.28;6205717;28;96869;-55
2024/02/12 12:58:41;;;;;;;;;6.00;6.00;;;;;16.32;100.00;97254.34;6203366;28;96644;-54
2024/02/12 13:01:46;;;;;;;;;7.20;6.80;;;;;16.34;100.00;97250.19;6206548;28;97551;-55
2024/02/12 13:04:49;;;;;;;;;6.60;6.60;;;;;16.46;100.00;97249.72;6225596;28;96535;-54
2024/02/12 13:07:53;;;;;;;;;5.80;5.20;;;;;16.40;100.00;97256.38;6209507;28;96770;-54
2024/02/12 13:11:16;;;;;;;;;7.00;7.00;;;;;16.28;100.00;97256.00;6230179;28;97743;-57
2024/02/12 13:14:21;;;;;;;;;5.60;5.00;;;;;16.34;100.00;97255.63;6238352;28;96468;-58
2024/02/12 13:17:27;;;;;;;;;6.00;6.00;;;;;16.36;100.00;97264.31;6239647;28;96404;-57
2024/02/12 13:20:31;;;;;;;;;7.25;7.00;;;;;16.30;100.00;97253.81;6240289;28;96283;-58
2024/02/12 13:23:34;;;;;;;;;7.00;6.00;;;;;16.23;100.00;97272.41;6228632;28;96847;-58
2024/02/12 13:26:38;;;;;;;;;8.00;6.50;;;;;16.23;100.00;97264.25;6235525;28;96240;-58
2024/02/12 13:29:41;;;;;;;;;6.25;5.25;;;;;16.05;100.00;97271.34;6253441;28;96936;-58
2024/02/12 13:32:49;;;;;;;;;8.00;7.40;;;;;15.91;100.00;97275.91;6253285;28;96948;-57
2024/02/12 13:35:54;;;;;;;;;7.00;6.00;;;;;15.89;100.00;97275.41;6253284;28;96278;-57
2024/02/12 13:38:57;;;;;;;;;5.80;5.00;;;;;15.85;100.00;97287.97;6252943;28;96401;-58
2024/02/12 13:42:02;;;;;;;;;5.00;5.00;;;;;15.95;100.00;97291.34;6250192;28;96503;-58
2024/02/12 13:45:11;;;;;;;;;7.00;6.40;;;;;15.79;100.00;97276.34;6252061;28;96338;-57
2024/02/12 13:48:24;;;;;;;;;5.00;5.00;;;;;16.05;100.00;97298.53;6251974;28;96474;-58
2024/02/12 13:51:28;;;;;;;;;6.60;6.60;;;;;16.22;100.00;97296.09;6251793;28;96401;-58
2024/02/12 13:54:32;;;;;;;;;9.00;9.00;;;;;16.23;100.00;97303.13;6247736;28;96376;-57
2024/02/12 13:57:41;;;;;;;;;7.00;6.60;;;;;16.24;100.00;97306.66;6242849;28;96339;-58
2024/02/12 14:00:44;;;;;;;;;7.00;7.00;;;;;16.40;100.00;97305.31;6251582;28;96324;-58
2024/02/12 14:04:12;;;;;;;;;8.00;8.00;;;;;16.52;100.00;97310.31;6228863;28;96410;-58
2024/02/12 14:07:22;;;;;;;;;7.50;7.00;;;;;16.54;100.00;97308.06;6217495;28;96348;-58
2024/02/12 14:10:35;;;;;;;;;10.25;8.25;;;;;16.53;100.00;97314.59;6196722;28;96332;-58
2024/02/12 14:13:39;;;;;;;;;8.60;8.60;;;;;16.48;100.00;97313.59;6222283;28;97050;-58
2024/02/12 14:16:42;;;;;;;;;9.40;8.00;;;;;16.32;100.00;97312.22;6220539;28;96645;-58
2024/02/12 14:19:47;;;;;;;;;9.00;8.50;;;;;16.27;100.00;97320.47;6215940;28;96442;-58
2024/02/12 14:22:51;;;;;;;;;7.80;7.00;;;;;16.11;100.00;97297.34;6214189;28;96369;-57
2024/02/12 14:25:54;;;;;;;;;7.50;6.50;;;;;16.14;100.00;97323.94;6212262;28;96341;-58
2024/02/12 14:28:59;;;;;;;;;7.00;7.00;;;;;16.05;100.00;97333.88;6222850;28;96346;-57
2024/02/12 14:32:02;;;;;;;;;7.40;7.40;;;;;16.00;100.00;97334.75;6212095;28;96425;-57
2024/02/12 14:35:27;;;;;;;;;8.00;7.50;;;;;15.93;100.00;97328.09;6216925;28;96727;-58
2024/02/12 14:38:30;;;;;;;;;7.00;7.00;;;;;15.85;100.00;97339.59;6213376;28;96369;-58